Time;durP1;ratioP1;P1;durP2;ratioP2;P2;SDS_P1;SDS_P2;PMS_P1;PMS_P2;Temp;Humidity;BMP_temperature;BMP_pressure;BME280_temperature;BME280_humidity;BME280_pressure;Samples;Min_cycle;Max_cycle;Signal;HPM_P1;HPM_P2
2022/09/16 00:14:18;;;;;;;6.15;1.75;;;;;;;24.16;85.33;99367.72;5497037;23;20045;-86
2022/09/16 00:24:05;;;;;;;8.18;1.40;;;;;;;24.11;84.52;99357.69;5623228;22;20045;-89
2022/09/16 00:27:25;;;;;;;11.50;1.98;;;;;;;24.26;83.24;99359.50;5533815;23;20056;-89
2022/09/16 02:54:50;;;;;;;8.70;2.20;;;;;;;22.48;100.00;99333.06;6040630;23;20032;-92
2022/09/16 03:14:44;;;;;;;9.98;2.53;;;;;;;21.88;100.00;99323.72;3689165;26;20050;-90
2022/09/16 03:35:18;;;;;;;6.60;2.17;;;;;;;20.99;100.00;99325.63;2857981;23;20038;-90
2022/09/16 04:08:52;;;;;;;10.70;2.50;;;;;;;20.95;100.00;99317.25;6113817;23;20076;-89
2022/09/16 04:17:22;;;;;;;10.00;3.20;;;;;;;21.01;100.00;99323.50;5508425;22;20046;-90
2022/09/16 04:20:14;;;;;;;17.67;3.47;;;;;;;21.22;100.00;99319.91;5030594;28;20045;-88
2022/09/16 04:31:27;;;;;;;9.27;3.00;;;;;;;21.09;100.00;99313.09;3798264;22;20058;-89
2022/09/16 04:34:36;;;;;;;14.13;3.22;;;;;;;20.80;100.00;99310.97;5017855;28;20050;-88
2022/09/16 04:37:50;;;;;;;16.20;3.78;;;;;;;20.76;100.00;99316.03;5018264;28;20060;-86
2022/09/16 04:40:29;;;;;;;16.48;3.53;;;;;;;20.94;100.00;99320.22;5015543;28;20085;-86
2022/09/16 04:43:08;;;;;;;12.60;3.97;;;;;;;20.81;100.00;99316.09;5006508;28;20046;-85
2022/09/16 04:45:58;;;;;;;15.23;3.38;;;;;;;20.77;100.00;99316.84;5019173;28;20065;-85
2022/09/16 04:48:29;;;;;;;19.05;4.07;;;;;;;20.65;100.00;99319.72;5010506;28;20057;-85
2022/09/16 04:51:07;;;;;;;12.35;3.65;;;;;;;20.48;100.00;99324.44;5014304;28;20031;-85
2022/09/16 04:53:45;;;;;;;9.70;3.55;;;;;;;20.54;100.00;99323.41;5019428;28;20042;-85
2022/09/16 04:56:49;;;;;;;13.45;3.97;;;;;;;20.41;100.00;99329.22;5010710;28;20061;-84
2022/09/16 04:59:21;;;;;;;13.68;3.85;;;;;;;20.35;100.00;99325.63;5016510;28;20039;-83
2022/09/16 05:01:48;;;;;;;13.52;3.75;;;;;;;20.18;100.00;99326.78;5014791;28;20145;-86
2022/09/16 05:04:17;;;;;;;19.27;4.40;;;;;;;19.99;100.00;99321.75;5018493;28;20038;-87
2022/09/16 06:20:12;;;;;;;18.45;3.97;;;;;;;22.36;100.00;99341.41;5676189;23;20056;-90
2022/09/16 08:06:13;;;;;;;23.35;11.20;;;;;;;27.70;77.41;99395.00;5138882;23;20046;-89
2022/09/16 08:08:55;;;;;;;20.45;11.13;;;;;;;27.59;78.42;99388.13;5016543;28;20030;-91
2022/09/16 08:11:33;;;;;;;31.45;11.18;;;;;;;27.57;78.30;99393.06;5002652;28;20062;-90
2022/09/16 08:14:55;;;;;;;21.67;11.35;;;;;;;27.77;78.29;99389.16;5017713;28;20082;-93
2022/09/16 08:17:27;;;;;;;25.35;11.20;;;;;;;27.87;77.29;99388.97;5019162;28;20030;-89
2022/09/16 08:19:56;;;;;;;25.90;11.75;;;;;;;27.99;76.08;99402.84;5018027;28;20050;-93
2022/09/16 08:31:31;;;;;;;23.15;11.73;;;;;;;28.18;77.34;99411.75;5089229;23;20185;-91
2022/09/16 08:53:20;;;;;;;33.28;14.00;;;;;;;27.87;79.06;99388.16;3780364;22;20132;-92
2022/09/16 09:04:33;;;;;;;34.70;15.82;;;;;;;28.58;74.96;99382.78;5182719;23;20041;-89
2022/09/16 09:37:00;;;;;;;32.72;16.52;;;;;;;30.95;62.90;99356.25;5035450;28;20034;-92
2022/09/16 09:43:12;;;;;;;28.07;14.30;;;;;;;31.43;61.22;99360.66;5284903;23;20065;-91
2022/09/16 09:54:54;;;;;;;23.25;11.60;;;;;;;31.92;57.45;99359.97;4673002;23;19925;-88
2022/09/16 09:58:11;;;;;;;31.88;12.20;;;;;;;32.18;56.43;99357.88;5035833;28;20038;-90
2022/09/16 10:00:42;;;;;;;21.58;11.60;;;;;;;32.70;55.54;99361.09;5032321;28;20032;-82
2022/09/16 10:03:18;;;;;;;22.23;10.77;;;;;;;33.17;53.79;99364.38;5034201;28;20038;-89
2022/09/16 10:05:53;;;;;;;21.25;11.02;;;;;;;32.72;54.95;99364.28;5017666;28;20030;-87
2022/09/16 10:08:59;;;;;;;23.23;10.98;;;;;;;33.00;53.83;99363.69;5036224;28;20025;-83
2022/09/16 10:11:30;;;;;;;22.98;9.77;;;;;;;33.96;51.50;99354.84;5032384;28;20046;-86
2022/09/16 10:14:29;;;;;;;23.17;11.27;;;;;;;32.99;54.90;99357.41;5034038;28;20034;-86
2022/09/16 10:17:34;;;;;;;24.67;11.38;;;;;;;32.93;55.06;99357.97;5015089;28;20030;-92
2022/09/16 10:20:38;;;;;;;24.23;10.80;;;;;;;33.63;53.14;99354.16;5031051;28;20118;-86
2022/09/16 10:23:39;;;;;;;23.52;10.48;;;;;;;33.70;52.54;99349.69;5031256;28;20034;-88
2022/09/16 10:26:15;;;;;;;24.30;10.18;;;;;;;33.93;51.32;99347.28;5034241;28;20103;-89
2022/09/16 10:28:56;;;;;;;23.05;9.02;;;;;;;33.55;51.77;99341.28;5035262;28;20026;-87
2022/09/16 10:31:41;;;;;;;27.13;10.20;;;;;;;34.16;50.05;99340.16;5033116;28;20077;-87
2022/09/16 10:34:25;;;;;;;19.67;9.80;;;;;;;34.19;50.25;99344.97;5024491;28;20046;-86
2022/09/16 10:37:33;;;;;;;23.83;10.05;;;;;;;34.68;47.91;99340.16;5019889;28;20086;-84
2022/09/16 10:40:26;;;;;;;18.85;7.03;;;;;;;33.90;48.73;99333.41;5034908;28;20050;-87
2022/09/16 10:43:18;;;;;;;18.98;6.80;;;;;;;33.70;49.72;99333.22;5035629;28;20041;-88
2022/09/16 10:46:00;;;;;;;22.92;8.32;;;;;;;33.83;48.63;99328.50;5020042;28;20014;-87
2022/09/16 10:48:30;;;;;;;24.70;7.88;;;;;;;32.94;51.02;99327.44;5034682;28;20053;-86
2022/09/16 10:51:27;;;;;;;14.55;6.82;;;;;;;34.51;47.84;99318.38;5035880;28;20048;-84
2022/09/16 10:54:21;;;;;;;24.55;7.57;;;;;;;33.70;49.75;99315.91;5032666;28;20034;-88
2022/09/16 10:56:49;;;;;;;22.23;7.75;;;;;;;34.11;48.77;99315.63;5034751;28;20050;-84
2022/09/16 10:59:17;;;;;;;20.65;8.07;;;;;;;34.63;47.38;99320.34;5035239;28;20037;-88
2022/09/16 11:05:19;;;;;;;25.40;8.70;;;;;;;34.22;46.73;99316.78;5051053;28;20061;-89
2022/09/16 11:08:23;;;;;;;18.45;8.30;;;;;;;33.70;47.69;99313.16;5054369;28;20128;-87
2022/09/16 11:11:17;;;;;;;16.15;6.05;;;;;;;34.72;45.48;99307.22;5058192;28;20071;-91
2022/09/16 11:14:28;;;;;;;23.80;6.90;;;;;;;35.86;42.59;99303.47;5058673;28;20033;-91
2022/09/16 11:17:45;;;;;;;26.70;7.43;;;;;;;35.63;43.46;99303.31;5044385;28;20038;-86
2022/09/16 11:20:40;;;;;;;22.23;5.65;;;;;;;35.75;42.78;99294.16;5060894;28;20037;-89
2022/09/16 11:24:33;;;;;;;17.08;7.20;;;;;;;36.10;40.27;99311.50;5039206;28;20021;-87
2022/09/16 11:27:37;;;;;;;22.85;7.05;;;;;;;36.23;39.71;99310.22;4956768;29;20063;-87
2022/09/16 11:30:21;;;;;;;23.08;7.05;;;;;;;37.21;37.63;99299.56;4953597;29;20129;-86
2022/09/16 11:33:39;;;;;;;17.20;6.20;;;;;;;36.83;38.22;99288.56;4980515;28;20034;-87
2022/09/16 11:39:48;;;;;;;19.83;5.30;;;;;;;36.78;37.01;99281.41;5076665;22;20114;-83
2022/09/16 11:43:16;;;;;;;14.82;4.78;;;;;;;35.68;39.57;99269.97;5029484;23;20084;-85
2022/09/16 11:53:06;;;;;;;18.10;4.93;;;;;;;34.12;42.61;99262.25;5018665;28;20073;-84
2022/09/16 11:56:11;;;;;;;14.75;5.10;;;;;;;32.03;48.27;99243.31;5075877;22;20185;-84
2022/09/16 11:59:17;;;;;;;17.45;5.53;;;;;;;30.77;52.63;99234.28;5038289;22;20084;-82
2022/09/16 12:02:50;;;;;;;18.95;5.18;;;;;;;30.63;54.60;99222.72;4827379;26;20053;-88
2022/09/16 12:08:33;;;;;;;10.50;4.03;;;;;;;30.21;56.43;99216.19;4863743;26;20106;-84
2022/09/16 12:11:32;;;;;;;16.25;4.32;;;;;;;30.03;57.31;99214.59;5021733;28;20034;-86
2022/09/16 12:14:38;;;;;;;11.15;3.95;;;;;;;29.65;58.35;99212.44;5025953;28;20102;-83
2022/09/16 12:17:25;;;;;;;12.50;4.28;;;;;;;29.75;58.07;99194.94;5141276;22;20016;-84
2022/09/16 12:21:01;;;;;;;14.23;4.97;;;;;;;29.70;58.25;99195.06;5017748;28;20046;-84
2022/09/16 12:24:53;;;;;;;19.42;4.63;;;;;;;29.66;58.84;99199.59;4968588;29;20035;-85
2022/09/16 12:28:09;;;;;;;18.77;4.25;;;;;;;29.78;57.82;99202.50;4967217;29;20047;-87
2022/09/16 12:31:04;;;;;;;15.18;4.03;;;;;;;29.86;57.30;99211.84;5025007;23;20046;-87
2022/09/16 12:34:10;;;;;;;17.55;4.10;;;;;;;29.56;58.99;99210.81;5036563;28;20098;-87
2022/09/16 12:36:42;;;;;;;12.00;5.00;;;;;;;28.86;63.46;99203.50;5036422;28;20049;-85
2022/09/16 12:46:10;;;;;;;17.73;5.90;;;;;;;28.40;68.60;99195.69;5014968;28;20077;-86
2022/09/16 12:49:09;;;;;;;16.27;5.40;;;;;;;28.06;72.49;99198.16;5016749;28;20029;-82
2022/09/16 12:51:57;;;;;;;17.40;6.10;;;;;;;27.40;81.53;99199.59;5012062;28;20058;-81
2022/09/16 13:02:17;;;;;;;9.40;1.75;;;;;;;25.97;77.30;99188.84;5023535;28;20057;-83
2022/09/16 13:05:14;;;;;;;7.90;1.63;;;;;;;25.77;77.75;99188.34;5030289;28;20060;-82
2022/09/16 13:07:42;;;;;;;5.97;1.58;;;;;;;25.70;77.87;99183.28;5122834;23;20081;-82
2022/09/16 13:10:15;;;;;;;;;;;;;;;25.66;76.69;99183.03;5033091;28;20029;-83
2022/09/16 13:13:04;;;;;;;5.63;1.20;;;;;;;25.74;76.75;99168.03;5024212;28;19925;-84
2022/09/16 13:15:39;;;;;;;3.10;0.63;;;;;;;25.68;76.66;99166.47;5011640;28;20038;-81
2022/09/16 13:18:46;;;;;;;4.03;0.80;;;;;;;25.68;75.21;99163.78;5027727;28;20038;-80
2022/09/16 13:21:43;;;;;;;4.55;1.20;;;;;;;25.96;74.24;99160.06;4948057;29;20115;-84
2022/09/16 13:24:37;;;;;;;4.00;1.20;;;;;;;26.10;73.44;99160.94;5043640;28;20403;-81
2022/09/16 13:27:27;;;;;;;2.55;0.70;;;;;;;26.00;74.81;99158.38;5017697;28;20030;-80
2022/09/16 13:30:12;;;;;;;1.20;0.63;;;;;;;26.05;75.66;99161.00;5024292;28;20087;-84
2022/09/16 13:32:56;;;;;;;5.30;1.60;;;;;;;25.97;77.98;99161.69;5030123;28;20038;-80
2022/09/16 13:35:38;;;;;;;7.10;1.30;;;;;;;25.96;79.82;99154.63;5042904;28;20437;-81
2022/09/16 13:38:21;;;;;;;4.28;1.10;;;;;;;25.94;81.60;99142.47;5027509;28;20044;-80
2022/09/16 13:41:02;;;;;;;;;;;;;;;26.17;82.07;99142.38;5040124;28;20044;-83
2022/09/16 13:43:49;;;;;;;3.73;1.60;;;;;;;26.23;82.21;99153.97;5031135;28;19917;-83
2022/09/16 13:46:51;;;;;;;5.90;1.48;;;;;;;26.46;82.46;99141.31;5013440;28;20279;-85
2022/09/16 13:49:24;;;;;;;7.30;1.90;;;;;;;26.45;83.06;99139.72;5029141;28;20040;-82
2022/09/16 13:51:57;;;;;;;8.93;1.95;;;;;;;26.54;83.27;99137.94;5003556;28;20033;-81
2022/09/16 13:54:47;;;;;;;10.55;2.08;;;;;;;26.68;82.91;99139.53;5025923;28;20423;-84
2022/09/16 13:57:44;;;;;;;9.68;2.67;;;;;;;26.55;85.46;99131.38;5025662;28;20042;-84
2022/09/16 14:00:21;;;;;;;9.85;2.65;;;;;;;26.81;85.23;99132.53;5024130;28;20030;-82
2022/09/16 14:02:59;;;;;;;13.77;2.85;;;;;;;26.73;86.03;99127.78;5027091;28;20033;-83
2022/09/16 14:06:02;;;;;;;6.70;2.53;;;;;;;26.73;85.61;99115.00;5027081;28;20401;-82
2022/09/16 14:08:31;;;;;;;10.98;2.47;;;;;;;26.72;83.69;99118.00;5023405;28;20045;-83
2022/09/16 14:11:16;;;;;;;8.18;2.10;;;;;;;26.78;83.80;99110.56;5028273;28;20040;-82
2022/09/16 14:13:49;;;;;;;12.38;2.42;;;;;;;26.62;84.49;99112.75;5028210;28;20069;-81
2022/09/16 14:16:26;;;;;;;9.20;2.00;;;;;;;26.50;84.30;99107.81;5029479;28;20036;-82
2022/09/16 14:19:19;;;;;;;6.95;1.77;;;;;;;26.41;85.39;99100.69;5011034;28;20042;-83
2022/09/16 14:21:45;;;;;;;6.90;1.70;;;;;;;26.30;85.07;99091.91;5028498;28;20109;-84
2022/09/16 14:24:17;;;;;;;9.13;2.35;;;;;;;26.43;86.20;99103.88;5023234;28;20084;-83
2022/09/16 14:26:53;;;;;;;11.23;2.47;;;;;;;26.14;86.99;99095.97;5006762;28;20050;-81
2022/09/16 14:29:23;;;;;;;6.53;1.80;;;;;;;25.98;88.18;99091.91;5023274;28;20054;-84
2022/09/16 14:31:52;;;;;;;8.77;2.30;;;;;;;26.04;87.76;99086.09;5024184;28;20026;-83
2022/09/16 14:34:38;;;;;;;7.55;1.90;;;;;;;26.02;89.42;99071.19;5027548;28;20104;-83
2022/09/16 14:37:05;;;;;;;5.10;1.80;;;;;;;26.09;88.46;99066.97;4992576;28;20050;-81
2022/09/16 14:39:40;;;;;;;11.52;2.35;;;;;;;26.12;89.98;99071.81;5025296;28;20069;-82
2022/09/16 14:42:06;;;;;;;9.30;2.13;;;;;;;26.11;89.91;99064.78;5025396;28;20034;-81
2022/09/16 14:44:36;;;;;;;12.90;2.17;;;;;;;26.18;90.42;99059.78;5026368;28;20045;-83
2022/09/16 14:47:31;;;;;;;7.30;2.03;;;;;;;26.13;91.52;99053.63;5024602;28;20052;-82
2022/09/16 14:50:25;;;;;;;9.38;2.25;;;;;;;25.99;93.64;99056.28;5027229;28;20030;-85
2022/09/16 14:53:07;;;;;;;11.80;2.30;;;;;;;25.89;95.51;99056.47;5000120;28;20049;-80
2022/09/16 14:55:38;;;;;;;11.60;2.38;;;;;;;25.89;96.82;99056.47;5027582;28;20053;-85
2022/09/16 14:58:10;;;;;;;24.80;2.42;;;;;;;25.80;99.74;99052.84;5028692;28;20117;-83
2022/09/16 15:01:00;;;;;;;11.00;2.50;;;;;;;25.87;99.46;99047.84;5027421;28;20034;-84
2022/09/16 15:03:42;;;;;;;12.02;2.30;;;;;;;25.99;100.00;99048.16;5026990;28;20033;-83
2022/09/16 15:06:17;;;;;;;10.15;2.28;;;;;;;25.97;100.00;99046.84;5025978;28;20038;-83
2022/09/16 15:09:03;;;;;;;7.40;1.98;;;;;;;25.98;99.97;99027.56;5034840;23;20040;-86
2022/09/16 15:11:44;;;;;;;22.42;2.42;;;;;;;26.06;99.47;99028.75;5007216;28;20089;-81
2022/09/16 15:14:19;;;;;;;17.02;2.25;;;;;;;26.00;100.00;99025.34;5007274;28;20042;-82
2022/09/16 15:16:59;;;;;;;;;;;;;;;26.07;99.67;99023.03;5003006;28;20057;-83
2022/09/16 15:19:34;;;;;;;7.07;2.15;;;;;;;26.19;98.67;99020.66;5006498;28;19922;-83
2022/09/16 15:22:16;;;;;;;8.23;2.40;;;;;;;26.15;98.83;99016.91;5009936;28;20098;-82
2022/09/16 15:24:52;;;;;;;8.32;2.22;;;;;;;26.23;97.14;99012.72;5010082;28;20027;-85
2022/09/16 15:28:04;;;;;;;10.15;2.60;;;;;;;26.26;96.87;99011.31;5000980;28;20039;-83
2022/09/16 15:30:50;;;;;;;18.77;2.80;;;;;;;26.20;98.01;99013.31;4990279;28;20066;-83
2022/09/16 15:33:36;;;;;;;13.85;2.33;;;;;;;26.15;98.52;99011.47;4990833;28;20039;-84
2022/09/16 15:36:37;;;;;;;7.90;2.50;;;;;;;26.09;97.52;99007.25;4988722;28;20113;-82
2022/09/16 15:39:23;;;;;;;9.25;2.40;;;;;;;26.10;97.06;99003.44;4983621;28;20121;-82
2022/09/16 15:42:22;;;;;;;10.63;2.45;;;;;;;26.06;98.13;98996.97;4993570;28;20077;-81
2022/09/16 15:44:58;;;;;;;6.95;2.28;;;;;;;26.12;94.33;98995.78;4932167;29;20047;-82
2022/09/16 15:47:59;;;;;;;7.88;2.15;;;;;;;26.27;93.20;98994.72;4949419;29;20043;-85
2022/09/16 15:50:46;;;;;;;11.10;2.50;;;;;;;26.23;92.86;98993.69;4939179;29;20558;-86
2022/09/16 15:53:43;;;;;;;7.18;1.75;;;;;;;26.26;91.06;99005.88;4967779;29;20039;-83
2022/09/16 15:56:44;;;;;;;8.35;2.03;;;;;;;26.27;91.07;98996.63;5019722;28;20052;-84
2022/09/16 15:59:44;;;;;;;6.00;1.83;;;;;;;26.40;88.04;99001.25;5000931;28;20672;-83
2022/09/16 16:02:49;;;;;;;10.25;2.15;;;;;;;26.50;84.96;98987.47;5008229;28;20052;-82
2022/09/16 16:05:35;;;;;;;6.22;1.92;;;;;;;26.46;82.65;98978.28;5008914;28;20045;-84
2022/09/16 16:08:05;;;;;;;9.60;2.00;;;;;;;26.52;78.70;98994.19;5013471;28;20066;-81
2022/09/16 16:10:38;;;;;;;5.18;1.80;;;;;;;26.57;76.12;98985.13;5019150;28;20019;-82
2022/09/16 16:13:07;;;;;;;9.80;1.60;;;;;;;26.52;74.79;98990.66;5016160;28;20073;-83
2022/09/16 16:15:37;;;;;;;10.02;1.67;;;;;;;26.52;71.39;98993.38;5015015;28;20061;-83
2022/09/16 16:18:06;;;;;;;4.03;1.42;;;;;;;26.52;71.23;98993.38;5015587;28;20048;-85
2022/09/16 16:20:42;;;;;;;6.45;1.80;;;;;;;26.48;69.71;98995.91;5015940;28;20030;-82
2022/09/16 16:23:19;;;;;;;9.23;1.60;;;;;;;26.54;68.45;98993.91;4985831;28;20065;-82
2022/09/16 16:25:54;;;;;;;6.15;1.60;;;;;;;26.41;69.17;98998.25;5015077;28;20505;-83
2022/09/16 16:32:06;;;;;;;5.10;1.75;;;;;;;26.23;71.74;98984.75;4999567;28;20046;-83
2022/09/16 16:34:42;;;;;;;7.32;1.67;;;;;;;26.30;71.86;98987.88;5001325;28;20051;-82
2022/09/16 16:37:11;;;;;;;6.72;1.50;;;;;;;26.19;72.69;98985.34;4999986;28;20039;-81
2022/09/16 16:39:43;;;;;;;8.20;1.30;;;;;;;25.96;74.23;98989.03;4994057;28;20062;-80
2022/09/16 16:42:14;;;;;;;6.45;1.52;;;;;;;25.81;75.98;98983.06;4991922;28;20377;-81
2022/09/16 16:44:45;;;;;;;7.07;1.80;;;;;;;25.67;77.53;98993.91;4993452;28;20071;-86
2022/09/16 16:47:18;;;;;;;6.65;1.90;;;;;;;25.64;78.42;98978.22;4997561;28;20039;-83
2022/09/16 16:49:43;;;;;;;7.07;2.15;;;;;;;25.73;78.68;98976.41;4996997;28;20038;-82
2022/09/16 16:52:09;;;;;;;6.13;2.00;;;;;;;25.70;78.50;98977.81;4996864;28;20026;-83
2022/09/16 16:54:47;;;;;;;6.63;1.35;;;;;;;25.74;78.17;98983.47;5008035;28;20031;-82
2022/09/16 16:57:33;;;;;;;7.53;1.90;;;;;;;25.75;77.38;98976.13;5016196;28;20042;-84
2022/09/16 17:00:03;;;;;;;11.00;1.98;;;;;;;25.74;76.62;98985.38;4993753;28;20050;-82
2022/09/16 17:02:29;;;;;;;5.80;1.70;;;;;;;25.78;74.77;98973.63;5007632;28;20035;-84
2022/09/16 17:04:54;;;;;;;6.25;1.50;;;;;;;25.83;73.98;98970.81;5002393;28;20033;-79
2022/09/16 17:07:27;;;;;;;6.28;1.60;;;;;;;25.79;72.87;98967.06;5009038;28;20038;-84
2022/09/16 17:10:04;;;;;;;8.68;1.30;;;;;;;25.88;71.99;98973.44;5007987;28;20058;-83
2022/09/16 17:12:39;;;;;;;6.38;1.60;;;;;;;25.88;72.80;98978.06;5011383;28;20094;-83
2022/09/16 17:15:13;;;;;;;6.68;1.77;;;;;;;25.88;71.87;98984.31;5029409;28;20069;-83
2022/09/16 17:17:47;;;;;;;7.63;1.73;;;;;;;25.66;72.58;98974.09;5012277;28;20106;-84
2022/09/16 17:20:21;;;;;;;8.02;1.70;;;;;;;25.68;73.27;98979.22;5011322;28;20034;-85
2022/09/16 17:22:52;;;;;;;6.45;1.75;;;;;;;25.73;72.86;98979.13;5012034;28;20030;-86
2022/09/16 17:25:24;;;;;;;6.78;1.50;;;;;;;25.69;73.59;98969.97;5008949;28;20042;-84
2022/09/16 17:27:49;;;;;;;6.30;1.88;;;;;;;25.64;73.25;98968.16;5009096;28;20102;-80
2022/09/16 17:30:18;;;;;;;7.22;1.75;;;;;;;25.67;72.95;98972.19;5007108;28;20050;-84
2022/09/16 17:32:47;;;;;;;10.98;1.77;;;;;;;25.67;72.03;98969.47;5008719;28;20053;-83
2022/09/16 17:35:28;;;;;;;5.95;1.50;;;;;;;25.55;72.37;98969.16;5014885;28;20054;-85
2022/09/16 17:37:57;;;;;;;5.00;1.30;;;;;;;25.67;72.45;98964.03;4990747;28;20133;-83
2022/09/16 17:40:31;;;;;;;12.65;1.52;;;;;;;25.67;72.06;98970.28;5008745;28;20038;-83
2022/09/16 17:43:04;;;;;;;6.75;1.50;;;;;;;25.57;72.34;98961.50;5012869;28;20100;-86
2022/09/16 17:45:32;;;;;;;5.10;1.75;;;;;;;25.56;72.07;98962.59;5013947;28;20041;-85
2022/09/16 17:48:49;;;;;;;7.45;1.77;;;;;;;25.43;72.07;98971.47;5013351;28;20168;-89
2022/09/16 17:51:45;;;;;;;8.68;1.70;;;;;;;25.38;72.32;98963.44;5008648;28;20083;-84
2022/09/16 17:54:36;;;;;;;9.63;1.77;;;;;;;25.34;72.21;98967.84;5013369;28;20092;-90
2022/09/16 17:57:27;;;;;;;5.85;1.55;;;;;;;25.40;71.96;98972.06;5183857;23;20054;-87
2022/09/16 18:00:26;;;;;;;8.48;1.38;;;;;;;25.25;72.31;98972.34;5033060;28;20042;-89
2022/09/16 18:03:45;;;;;;;8.52;1.60;;;;;;;25.10;73.03;98973.34;5035359;28;20041;-87
2022/09/16 18:06:47;;;;;;;4.55;1.42;;;;;;;25.20;72.48;98971.31;5015569;28;20038;-87
2022/09/16 18:09:28;;;;;;;8.77;1.70;;;;;;;25.12;72.25;98971.97;5014813;28;20038;-88
2022/09/16 18:11:58;;;;;;;8.60;1.73;;;;;;;25.17;71.67;98980.03;5009170;28;20043;-89
2022/09/16 18:15:37;;;;;;;7.32;1.58;;;;;;;25.12;71.72;98974.66;5015556;28;20413;-90
2022/09/16 18:18:56;;;;;;;8.10;1.80;;;;;;;25.18;70.87;98987.06;4956856;29;20058;-87
2022/09/16 18:21:54;;;;;;;11.13;5.22;;;;;;;25.07;71.86;98980.19;4938313;29;20040;-88
2022/09/16 18:24:30;;;;;;;5.95;1.33;;;;;;;24.98;71.27;98983.84;4908735;29;20044;-85
2022/09/16 18:27:16;;;;;;;6.65;1.45;;;;;;;24.91;71.70;98983.41;4932477;28;20043;-85
2022/09/16 18:30:08;;;;;;;4.68;1.27;;;;;;;24.95;70.99;98976.31;4996221;28;20034;-88
2022/09/16 18:32:55;;;;;;;6.80;1.77;;;;;;;24.82;71.17;98972.44;5010785;28;20046;-86
2022/09/16 18:35:50;;;;;;;12.63;1.83;;;;;;;24.70;72.32;98974.72;5031228;28;20072;-87
2022/09/16 18:38:59;;;;;;;7.75;1.60;;;;;;;24.78;71.56;98979.50;5034812;28;20069;-88
2022/09/16 18:41:34;;;;;;;5.15;1.48;;;;;;;24.65;71.62;98981.03;5030717;28;20030;-87
2022/09/16 18:44:14;;;;;;;8.93;1.55;;;;;;;24.58;71.82;98982.47;5033528;28;20303;-87
2022/09/16 18:46:41;;;;;;;8.23;1.50;;;;;;;24.61;71.30;98990.03;5017191;28;20046;-87
2022/09/16 18:49:19;;;;;;;5.93;1.30;;;;;;;24.51;71.87;98987.44;5034352;28;20030;-86
2022/09/16 18:52:38;;;;;;;10.40;1.30;;;;;;;24.47;72.04;98989.91;5033740;28;20405;-92
2022/09/16 18:55:57;;;;;;;5.82;1.50;;;;;;;24.41;72.03;98984.84;5037136;28;20091;-89
2022/09/16 18:59:29;;;;;;;8.98;1.60;;;;;;;24.43;71.46;98988.06;5023010;28;20034;-91
2022/09/16 19:06:08;;;;;;;9.23;1.42;;;;;;;24.41;71.35;98984.84;5034425;28;20040;-88
2022/09/16 19:11:48;;;;;;;7.90;2.40;;;;;;;24.40;71.26;98980.53;5291457;23;20112;-91
2022/09/16 19:15:03;;;;;;;7.50;1.65;;;;;;;24.38;71.30;98983.53;4996236;28;20090;-87
2022/09/16 19:17:55;;;;;;;7.63;1.75;;;;;;;24.34;72.39;98976.28;4997115;28;20065;-87
2022/09/16 19:20:36;;;;;;;10.63;1.70;;;;;;;24.35;72.30;98988.72;4994169;28;20051;-88
2022/09/16 19:23:39;;;;;;;4.82;1.48;;;;;;;24.39;71.67;98989.78;4970790;28;20031;-89
2022/09/16 19:29:57;;;;;;;6.63;1.33;;;;;;;24.37;71.78;98976.50;4996148;28;20038;-85
2022/09/16 19:32:53;;;;;;;6.65;1.65;;;;;;;24.35;71.53;98972.47;5034985;28;20045;-87
2022/09/16 19:35:32;;;;;;;6.82;1.73;;;;;;;24.40;72.54;98970.50;5040569;28;20066;-86
2022/09/16 19:38:34;;;;;;;6.93;1.33;;;;;;;24.43;70.84;98963.69;5039519;28;20102;-82
2022/09/16 19:41:22;;;;;;;;;;;;;;;;;;;;;
2022/09/16 20:01:38;;;;;;;8.73;1.75;;;;;;;24.30;73.14;98967.09;5581796;23;20054;-89
2022/09/16 20:08:27;;;;;;;7.57;1.63;;;;;;;24.27;73.96;98959.56;4983294;28;20062;-90
2022/09/16 20:14:48;;;;;;;8.18;1.60;;;;;;;24.27;73.48;98956.84;1338902;26;20042;-89
2022/09/16 20:24:40;;;;;;;3.88;1.25;;;;;;;24.32;73.53;98957.63;5058786;28;20040;-89
2022/09/16 20:27:42;;;;;;;7.13;1.77;;;;;;;24.31;74.29;98960.59;5058547;28;20017;-90
2022/09/16 20:30:37;;;;;;;5.72;1.60;;;;;;;24.28;75.30;98961.19;5052029;28;20053;-91
2022/09/16 20:33:45;;;;;;;11.48;2.03;;;;;;;24.32;75.71;98965.75;5057952;28;20036;-88
2022/09/16 20:36:47;;;;;;;7.28;1.48;;;;;;;24.27;76.51;98959.56;5060442;28;20093;-88
2022/09/16 20:39:53;;;;;;;11.27;1.70;;;;;;;24.27;76.87;98959.56;5055796;28;20025;-90
2022/09/16 20:43:25;;;;;;;5.45;1.30;;;;;;;24.26;77.20;98955.25;5046399;28;20040;-90
2022/09/16 20:58:06;;;;;;;6.80;1.73;;;;;;;23.99;80.87;98945.00;3799530;26;20045;-88
2022/09/16 21:01:14;;;;;;;6.55;1.85;;;;;;;23.98;81.16;98946.06;5027205;28;20034;-87
2022/09/16 21:04:08;;;;;;;6.25;1.70;;;;;;;23.95;82.03;98942.06;5123400;23;20076;-86
2022/09/16 21:06:37;;;;;;;;;;;;;;;24.05;81.18;98960.88;5048906;28;20042;-90
2022/09/16 21:09:30;;;;;;;5.97;2.08;;;;;;;23.95;81.94;98962.88;5057952;28;19921;-87
2022/09/16 21:12:08;;;;;;;11.50;1.93;;;;;;;23.90;82.19;98966.44;5055473;28;20037;-86
2022/09/16 21:14:47;;;;;;;5.93;1.80;;;;;;;23.93;81.79;98965.88;5037815;28;20092;-86
2022/09/16 21:17:42;;;;;;;9.75;2.15;;;;;;;23.92;81.73;98980.50;5057092;28;20057;-88
2022/09/16 21:20:22;;;;;;;7.28;2.13;;;;;;;24.00;80.62;98971.75;5024914;28;20065;-86
2022/09/16 21:23:16;;;;;;;7.90;2.13;;;;;;;23.99;80.44;98980.97;5058288;28;20029;-89
2022/09/16 21:31:27;;;;;;;9.93;2.03;;;;;;;24.09;77.63;98991.69;4986029;26;20089;-86
2022/09/16 21:34:06;;;;;;;6.80;2.17;;;;;;;24.22;76.75;98992.13;5021551;28;20136;-87
2022/09/16 21:45:01;;;;;;;9.15;2.15;;;;;;;24.01;76.51;98977.97;5064804;23;20094;-86
2022/09/16 21:48:15;;;;;;;9.90;2.50;;;;;;;23.99;76.37;98997.22;4949952;29;20036;-89
2022/09/16 21:51:07;;;;;;;10.52;2.25;;;;;;;23.89;75.34;98991.91;4977733;29;20062;-88
2022/09/16 21:53:55;;;;;;;10.43;2.10;;;;;;;23.88;75.17;98992.19;4964580;29;20039;-87
2022/09/16 21:56:47;;;;;;;10.88;2.30;;;;;;;23.92;74.99;99002.16;4979342;28;20121;-88
2022/09/16 22:00:04;;;;;;;10.35;2.65;;;;;;;23.94;74.58;99004.56;5036076;28;20054;-88
2022/09/16 22:03:07;;;;;;;10.52;2.08;;;;;;;23.89;74.15;99002.75;5012892;28;20040;-87
2022/09/16 22:06:25;;;;;;;6.47;2.03;;;;;;;23.94;72.56;99010.78;4994258;28;20058;-85
2022/09/16 22:09:40;;;;;;;6.43;1.83;;;;;;;23.89;72.01;99008.16;5015760;28;20103;-87
2022/09/16 22:12:12;;;;;;;9.45;1.83;;;;;;;23.90;72.03;99014.34;4944792;29;20055;-88
2022/09/16 22:14:45;;;;;;;10.85;2.80;;;;;;;23.86;72.28;99038.50;4959038;29;20042;-87
2022/09/16 22:17:55;;;;;;;10.40;2.92;;;;;;;23.76;76.02;99044.00;4977456;28;20038;-86
2022/09/16 22:21:10;;;;;;;6.72;2.53;;;;;;;23.61;78.05;99038.69;4976668;28;20042;-86
2022/09/16 22:23:53;;;;;;;7.10;2.40;;;;;;;23.48;78.53;99047.44;4983210;28;20041;-85
2022/09/16 22:26:48;;;;;;;14.40;2.30;;;;;;;23.43;79.13;99052.91;5013272;28;20038;-86
2022/09/16 22:29:42;;;;;;;7.43;2.30;;;;;;;23.33;80.46;99055.66;5014653;28;20030;-86
2022/09/16 22:32:59;;;;;;;7.82;2.42;;;;;;;23.29;80.73;99058.09;5005323;28;20053;-87
2022/09/16 22:38:21;;;;;;;6.45;2.22;;;;;;;23.21;81.01;99047.88;5069519;28;20025;-86
2022/09/16 22:41:22;;;;;;;14.48;2.50;;;;;;;23.27;80.87;99049.44;5047703;28;20569;-86
2022/09/16 22:44:26;;;;;;;13.55;2.92;;;;;;;23.28;79.74;99050.25;5062486;22;20056;-87
2022/09/16 22:50:40;;;;;;;10.50;2.47;;;;;;;23.43;78.08;99058.31;2983607;26;20057;-86
2022/09/16 22:54:12;;;;;;;8.10;2.22;;;;;;;23.48;77.71;99060.97;5026365;28;20034;-87
2022/09/16 22:57:19;;;;;;;14.65;2.70;;;;;;;23.54;77.48;99060.66;5036089;28;20022;-87
2022/09/16 23:00:37;;;;;;;5.85;1.95;;;;;;;23.70;76.56;99064.03;5035513;28;20113;-86
2022/09/16 23:04:17;;;;;;;10.70;2.55;;;;;;;23.76;76.46;99068.34;5040507;28;20076;-88
2022/09/16 23:10:55;;;;;;;10.88;2.50;;;;;;;23.65;77.77;99061.38;5484295;22;20042;-85
2022/09/16 23:14:20;;;;;;;6.40;2.63;;;;;;;23.48;79.13;99053.66;5040891;28;20042;-87
2022/09/16 23:17:10;;;;;;;10.57;2.65;;;;;;;23.45;79.96;99061.53;5039095;28;20042;-87
2022/09/16 23:20:13;;;;;;;7.28;2.42;;;;;;;23.41;79.94;99047.75;5023945;28;20033;-87
2022/09/16 23:22:47;;;;;;;12.57;2.50;;;;;;;23.47;79.20;99051.22;5039908;28;20048;-88
2022/09/16 23:26:07;;;;;;;12.15;2.75;;;;;;;23.42;79.83;99046.69;5040749;28;20029;-87